Time;durP1;ratioP1;P1;durP2;ratioP2;P2;SDS_P1;SDS_P2;PMS_P1;PMS_P2;Temp;Humidity;BMP_temperature;BMP_pressure;BME280_temperature;BME280_humidity;BME280_pressure;Samples;Min_cycle;Max_cycle;Signal;HPM_P1;HPM_P2
2022/11/18 00:01:33;;;;;;;3.70;1.67;;;-11.10;99.90;;;;;;5084483;28;20185;-74
2022/11/18 00:03:59;;;;;;;9.63;1.80;;;-10.20;99.90;;;;;;5094513;28;20198;-73
2022/11/18 00:06:27;;;;;;;3.80;2.47;;;-10.30;99.90;;;;;;5099103;28;20240;-74
2022/11/18 00:08:53;;;;;;;4.53;1.60;;;-9.30;99.90;;;;;;5099462;28;20182;-74
2022/11/18 00:14:19;;;;;;;2.83;1.77;;;-7.20;99.90;;;;;;5098724;28;20237;-74
2022/11/18 00:17:17;;;;;;;3.40;1.70;;;-9.60;99.90;;;;;;5084334;28;20653;-74
2022/11/18 00:19:42;;;;;;;3.03;2.10;;;-9.80;99.90;;;;;;5092499;28;20573;-73
2022/11/18 00:22:11;;;;;;;5.50;2.00;;;-9.60;99.90;;;;;;5098985;28;20186;-74
2022/11/18 00:24:37;;;;;;;5.07;2.90;;;-8.90;99.90;;;;;;5093824;28;20189;-74
2022/11/18 00:27:03;;;;;;;8.00;2.00;;;-8.70;99.90;;;;;;5087291;28;20188;-75
2022/11/18 00:29:30;;;;;;;6.70;2.83;;;-9.30;99.90;;;;;;5091102;28;20628;-74
2022/11/18 00:31:56;;;;;;;2.63;2.10;;;-8.60;99.90;;;;;;5086275;28;20522;-75
2022/11/18 00:34:23;;;;;;;4.90;2.60;;;-7.90;99.90;;;;;;5092869;28;20190;-73
2022/11/18 00:36:49;;;;;;;3.67;2.47;;;-7.70;99.90;;;;;;5098690;28;20325;-74
2022/11/18 00:39:18;;;;;;;3.33;2.40;;;-8.50;99.90;;;;;;5094817;28;20291;-74
2022/11/18 00:44:29;;;;;;;4.93;2.63;;;-7.80;99.90;;;;;;5090988;28;20230;-73
2022/11/18 00:46:55;;;;;;;7.53;2.20;;;-8.60;99.90;;;;;;5086019;28;20487;-74
2022/11/18 00:49:21;;;;;;;4.20;2.13;;;-7.70;99.90;;;;;;5092198;28;20190;-74
2022/11/18 00:51:47;;;;;;;3.90;1.83;;;-7.50;99.90;;;;;;5091018;28;20206;-73
2022/11/18 00:54:13;;;;;;;2.90;1.90;;;-8.60;99.90;;;;;;5098229;28;20180;-75
2022/11/18 00:56:39;;;;;;;3.70;1.83;;;-8.60;99.90;;;;;;5098286;28;20193;-74
2022/11/18 00:59:04;;;;;;;1.67;1.47;;;-8.20;99.90;;;;;;5097996;28;20243;-73
2022/11/18 01:01:30;;;;;;;4.50;2.77;;;-8.20;99.90;;;;;;5097935;28;20246;-73
2022/11/18 01:03:56;;;;;;;6.20;2.03;;;-8.50;99.90;;;;;;5092704;28;20192;-74
2022/11/18 01:06:22;;;;;;;4.20;2.37;;;-7.90;99.90;;;;;;5097961;28;20183;-73
2022/11/18 01:08:48;;;;;;;6.27;2.30;;;-8.20;99.90;;;;;;5091461;28;20263;-74
2022/11/18 01:13:57;;;;;;;3.00;2.03;;;-5.80;99.90;;;;;;5088064;28;20196;-74
2022/11/18 01:16:26;;;;;;;6.63;1.77;;;-9.50;99.90;;;;;;5090689;28;20189;-72
2022/11/18 01:18:52;;;;;;;1.90;1.73;;;-9.10;99.90;;;;;;5095694;28;20293;-74
2022/11/18 01:21:18;;;;;;;3.03;1.97;;;-11.10;99.90;;;;;;5097743;28;20185;-75
2022/11/18 01:23:44;;;;;;;6.33;1.87;;;-9.20;99.90;;;;;;5097827;28;20181;-74
2022/11/18 01:26:12;;;;;;;3.13;1.93;;;-9.60;99.90;;;;;;5087151;28;20235;-74
2022/11/18 01:28:38;;;;;;;3.20;1.63;;;-8.50;99.90;;;;;;5088924;28;20487;-74
2022/11/18 01:31:09;;;;;;;8.00;2.10;;;-8.30;99.90;;;;;;5093841;28;20642;-75
2022/11/18 01:33:35;;;;;;;6.27;2.57;;;-8.50;99.90;;;;;;5086741;28;20190;-75
2022/11/18 01:36:01;;;;;;;5.07;2.50;;;-9.30;99.90;;;;;;5092632;28;20234;-74
2022/11/18 01:38:27;;;;;;;3.00;1.90;;;-9.30;99.90;;;;;;5097471;28;20203;-73
2022/11/18 01:40:54;;;;;;;2.33;2.00;;;-9.00;99.90;;;;;;5092335;28;20175;-74
2022/11/18 01:43:22;;;;;;;1.87;1.77;;;-9.20;99.90;;;;;;5090607;28;20469;-74
2022/11/18 01:45:49;;;;;;;4.57;2.53;;;-10.10;99.90;;;;;;5078793;28;20185;-74
2022/11/18 01:48:30;;;;;;;4.90;2.63;;;-10.20;99.90;;;;;;5093120;28;20180;-74
2022/11/18 01:51:08;;;;;;;2.17;1.47;;;-8.40;99.90;;;;;;5093424;28;20187;-75
2022/11/18 01:53:44;;;;;;;1.87;1.77;;;-9.90;99.90;;;;;;5096817;28;20523;-74
2022/11/18 01:56:22;;;;;;;6.10;1.80;;;-8.10;99.90;;;;;;5087651;28;20489;-74
2022/11/18 01:58:54;;;;;;;4.17;1.53;;;-6.90;99.90;;;;;;5093134;28;20218;-74
2022/11/18 02:01:20;;;;;;;5.87;2.77;;;-9.90;99.90;;;;;;5083719;28;20191;-74
2022/11/18 02:03:49;;;;;;;2.17;1.77;;;-9.60;99.90;;;;;;5090293;28;20593;-75
2022/11/18 02:06:15;;;;;;;4.23;2.33;;;-9.30;99.90;;;;;;5095665;28;20188;-74
2022/11/18 02:08:41;;;;;;;3.33;1.53;;;-9.30;99.90;;;;;;5096534;28;20187;-75
2022/11/18 02:11:49;;;;;;;1.83;1.73;;;-8.30;99.90;;;;;;5087929;28;20228;-73
2022/11/18 02:14:00;;;;;;;1.73;1.40;;;-7.30;99.90;;;;;;5088285;28;20274;-74
2022/11/18 02:17:02;;;;;;;4.50;1.50;;;-8.90;99.90;;;;;;5089687;28;20180;-74
2022/11/18 02:19:46;;;;;;;2.60;1.73;;;-7.60;99.90;;;;;;5089649;28;20198;-74
2022/11/18 02:23:13;;;;;;;4.50;2.17;;;-9.20;99.90;;;;;;5082867;28;20182;-75
2022/11/18 02:26:16;;;;;;;1.57;1.40;;;-8.80;99.90;;;;;;5056789;28;20596;-73
2022/11/18 02:29:02;;;;;;;2.30;1.53;;;-8.00;99.90;;;;;;5093956;28;20287;-75
2022/11/18 02:32:05;;;;;;;1.60;1.50;;;-8.50;99.90;;;;;;5092835;28;20190;-74
2022/11/18 02:34:53;;;;;;;3.50;1.50;;;-8.80;99.90;;;;;;5085631;28;20549;-76
2022/11/18 02:37:44;;;;;;;4.00;1.57;;;-8.70;99.90;;;;;;5084228;28;20178;-73
2022/11/18 02:40:27;;;;;;;3.37;1.60;;;-9.90;99.90;;;;;;5090723;28;20211;-74
2022/11/18 02:42:58;;;;;;;2.93;1.63;;;-8.30;99.90;;;;;;5090519;28;20174;-74
2022/11/18 02:45:27;;;;;;;18.07;1.97;;;-10.40;99.90;;;;;;5095882;28;20249;-74
2022/11/18 02:47:55;;;;;;;1.47;1.37;;;-8.50;99.90;;;;;;5096124;28;20182;-74
2022/11/18 02:50:25;;;;;;;3.97;2.13;;;-10.10;99.90;;;;;;5096126;28;20206;-73
2022/11/18 02:52:55;;;;;;;2.17;1.73;;;-9.60;99.90;;;;;;5095156;28;20198;-74
2022/11/18 02:55:22;;;;;;;2.90;1.93;;;-9.40;99.90;;;;;;5090142;28;20177;-76
2022/11/18 02:57:49;;;;;;;6.80;1.90;;;-7.40;99.90;;;;;;5092024;28;20175;-75
2022/11/18 03:00:15;;;;;;;1.97;1.87;;;-9.90;99.90;;;;;;5088738;28;20273;-73
2022/11/18 03:02:46;;;;;;;3.23;1.60;;;-9.70;99.90;;;;;;5083044;28;20187;-72
2022/11/18 03:05:51;;;;;;;5.93;2.73;;;-10.70;99.90;;;;;;5084842;28;20259;-74
2022/11/18 03:08:24;;;;;;;3.47;1.63;;;-9.60;99.90;;;;;;5017862;28;20623;-74
2022/11/18 03:11:02;;;;;;;2.97;1.60;;;-10.60;99.90;;;;;;5094846;28;20523;-73
2022/11/18 03:13:42;;;;;;;7.43;2.73;;;-10.80;99.90;;;;;;5082951;28;20224;-73
2022/11/18 03:16:21;;;;;;;3.57;2.30;;;-11.30;99.90;;;;;;5088098;28;20228;-74
2022/11/18 03:19:06;;;;;;;3.00;2.33;;;-10.60;99.90;;;;;;5088853;28;20640;-74
2022/11/18 03:21:41;;;;;;;4.93;2.33;;;-10.00;99.90;;;;;;5087199;28;20178;-73
2022/11/18 03:24:20;;;;;;;4.77;1.70;;;-10.50;99.90;;;;;;5090311;28;20178;-74
2022/11/18 03:26:54;;;;;;;2.73;1.70;;;-9.90;99.90;;;;;;5092004;28;20170;-74
2022/11/18 03:29:33;;;;;;;6.17;2.40;;;-7.10;99.90;;;;;;5092529;28;20186;-73
2022/11/18 03:32:08;;;;;;;5.40;2.00;;;-10.50;99.90;;;;;;5087056;28;20191;-74
2022/11/18 03:34:39;;;;;;;5.50;2.13;;;-10.50;99.90;;;;;;5093732;28;20562;-73
2022/11/18 03:37:10;;;;;;;5.27;2.17;;;-10.50;99.90;;;;;;5090699;28;20205;-73
2022/11/18 03:39:41;;;;;;;3.13;2.13;;;-10.40;99.90;;;;;;5095411;28;20620;-74
2022/11/18 03:42:24;;;;;;;4.93;3.00;;;-10.70;99.90;;;;;;5093000;28;20213;-74
2022/11/18 03:44:54;;;;;;;1.97;1.87;;;-9.20;99.90;;;;;;5092228;28;20179;-73
2022/11/18 03:47:31;;;;;;;2.00;1.80;;;-10.50;99.90;;;;;;5087100;28;20603;-75
2022/11/18 03:50:14;;;;;;;2.50;2.30;;;-9.00;99.90;;;;;;5088946;28;20494;-73
2022/11/18 03:52:41;;;;;;;2.97;1.83;;;-8.80;99.90;;;;;;5104986;28;20290;-74
2022/11/18 03:55:15;;;;;;;3.30;1.70;;;-10.70;99.90;;;;;;5095407;28;20186;-74
2022/11/18 03:57:44;;;;;;;4.13;2.53;;;-10.30;99.90;;;;;;5092273;28;20181;-74
2022/11/18 04:00:12;;;;;;;3.70;1.83;;;-10.50;99.90;;;;;;5086824;28;20255;-73
2022/11/18 04:02:38;;;;;;;6.93;3.17;;;-11.10;99.90;;;;;;5086081;28;20197;-75
2022/11/18 04:05:08;;;;;;;3.47;1.97;;;-10.80;99.90;;;;;;5087037;28;20187;-73
2022/11/18 04:07:56;;;;;;;7.67;2.37;;;-11.10;99.90;;;;;;5085279;28;20175;-74
2022/11/18 04:10:32;;;;;;;3.83;2.03;;;-10.90;99.90;;;;;;5092392;28;20210;-74
2022/11/18 04:13:11;;;;;;;5.53;2.00;;;-11.10;99.90;;;;;;5075682;28;20527;-74
2022/11/18 04:15:38;;;;;;;2.43;1.57;;;-10.80;99.90;;;;;;5091675;28;20191;-73
2022/11/18 04:18:04;;;;;;;6.17;2.17;;;-8.60;99.90;;;;;;5098755;28;20186;-74
2022/11/18 04:20:31;;;;;;;5.10;2.70;;;-10.40;99.90;;;;;;5097336;28;20240;-75
2022/11/18 04:22:57;;;;;;;2.20;2.00;;;-9.80;99.90;;;;;;5093903;28;20266;-73
2022/11/18 04:25:25;;;;;;;1.80;1.67;;;-8.80;99.90;;;;;;5093221;28;20242;-73
2022/11/18 04:27:51;;;;;;;9.97;2.97;;;-8.30;99.90;;;;;;5089473;28;20175;-76
2022/11/18 04:30:18;;;;;;;4.20;2.10;;;-8.90;99.90;;;;;;5097698;28;20193;-73
2022/11/18 04:32:44;;;;;;;3.70;1.90;;;-9.70;99.90;;;;;;5097635;28;20218;-74
2022/11/18 04:35:10;;;;;;;7.13;1.97;;;-8.90;99.90;;;;;;5098712;28;20590;-74
2022/11/18 04:37:36;;;;;;;4.37;1.97;;;-8.90;99.90;;;;;;5098535;28;20183;-74
2022/11/18 04:40:03;;;;;;;5.20;2.73;;;-10.10;99.90;;;;;;5097215;28;20189;-75
2022/11/18 04:42:28;;;;;;;2.77;2.07;;;-9.60;99.90;;;;;;5098711;28;20180;-75
2022/11/18 04:44:54;;;;;;;2.20;2.00;;;-9.50;99.90;;;;;;5089305;28;20178;-74
2022/11/18 04:47:20;;;;;;;8.57;1.90;;;-10.30;99.90;;;;;;5085937;28;20175;-75
2022/11/18 04:49:46;;;;;;;6.03;1.90;;;-9.50;99.90;;;;;;5087717;28;20296;-74
2022/11/18 04:52:13;;;;;;;3.43;2.50;;;-9.40;99.90;;;;;;5090954;28;20293;-74
2022/11/18 04:54:39;;;;;;;14.80;2.23;;;-9.00;99.90;;;;;;5096712;28;20189;-73
2022/11/18 04:57:04;;;;;;;4.17;2.43;;;-10.50;99.90;;;;;;5098343;28;20178;-72
2022/11/18 04:59:30;;;;;;;2.50;2.10;;;-11.50;99.90;;;;;;5091125;28;20305;-73
2022/11/18 05:01:58;;;;;;;7.53;2.47;;;-9.30;99.90;;;;;;5091567;28;20304;-74
2022/11/18 05:04:30;;;;;;;5.67;1.90;;;-8.80;99.90;;;;;;5086252;28;20599;-74
2022/11/18 05:06:56;;;;;;;7.57;2.27;;;-10.20;99.90;;;;;;5094338;28;20613;-73
2022/11/18 05:09:22;;;;;;;3.93;2.10;;;-10.00;99.90;;;;;;5088790;28;20671;-73
2022/11/18 05:14:32;;;;;;;5.63;2.37;;;-9.70;99.90;;;;;;5098309;28;20642;-73
2022/11/18 05:17:00;;;;;;;7.00;3.00;;;-9.40;99.90;;;;;;5093780;28;20708;-73
2022/11/18 05:19:26;;;;;;;6.40;2.27;;;-9.70;99.90;;;;;;5094179;28;20231;-74
2022/11/18 05:21:52;;;;;;;4.43;3.03;;;-10.00;99.90;;;;;;5087741;28;20266;-75
2022/11/18 05:24:18;;;;;;;6.10;3.43;;;-9.50;99.90;;;;;;5087450;28;20683;-74
2022/11/18 05:26:44;;;;;;;2.37;1.47;;;-9.60;99.90;;;;;;5090726;28;20182;-73
2022/11/18 05:29:10;;;;;;;4.43;2.47;;;-8.40;99.90;;;;;;5097446;28;20178;-73
2022/11/18 05:31:36;;;;;;;6.77;2.90;;;-8.70;99.90;;;;;;5097462;28;20192;-73
2022/11/18 05:34:02;;;;;;;4.07;1.80;;;-7.20;99.90;;;;;;5090157;28;20290;-73
2022/11/18 05:36:28;;;;;;;3.53;1.73;;;-9.60;99.90;;;;;;5097546;28;20478;-74
2022/11/18 05:38:53;;;;;;;5.63;2.57;;;-9.80;99.90;;;;;;5086830;28;20252;-73
2022/11/18 05:44:04;;;;;;;4.87;2.40;;;-10.20;99.90;;;;;;5094815;28;20184;-73
2022/11/18 05:46:30;;;;;;;5.87;2.93;;;-10.00;99.90;;;;;;5090765;28;20172;-74
2022/11/18 05:48:56;;;;;;;2.43;1.87;;;-9.20;99.90;;;;;;5089427;28;20186;-72
2022/11/18 05:51:23;;;;;;;6.00;2.20;;;-10.10;99.90;;;;;;5094418;28;20522;-75
2022/11/18 05:53:51;;;;;;;4.50;2.20;;;-10.50;99.90;;;;;;5086276;28;20241;-74
2022/11/18 05:56:27;;;;;;;5.73;2.40;;;-9.70;99.90;;;;;;5085896;28;20576;-75
2022/11/18 05:58:53;;;;;;;2.57;2.37;;;-10.00;99.90;;;;;;5078882;28;20697;-73
2022/11/18 06:01:26;;;;;;;4.87;2.40;;;-9.70;99.90;;;;;;5089338;28;20270;-75
2022/11/18 06:03:53;;;;;;;4.23;2.43;;;-10.60;99.90;;;;;;5091196;28;20338;-74
2022/11/18 06:06:21;;;;;;;3.70;2.00;;;-10.30;99.90;;;;;;5095416;28;20175;-73
2022/11/18 06:08:56;;;;;;;5.27;2.50;;;-10.20;99.90;;;;;;5092110;28;20175;-74
2022/11/18 06:11:23;;;;;;;4.97;2.60;;;-10.60;99.90;;;;;;5090138;28;20204;-74
2022/11/18 06:14:02;;;;;;;5.00;3.23;;;-8.90;99.90;;;;;;5089459;28;20493;-76
2022/11/18 06:16:31;;;;;;;8.30;2.43;;;-9.40;99.90;;;;;;5087673;28;20201;-74
2022/11/18 06:18:57;;;;;;;4.60;2.30;;;-7.70;99.90;;;;;;5091169;28;20276;-75
2022/11/18 06:21:23;;;;;;;5.47;2.00;;;-9.20;99.90;;;;;;5091212;28;20182;-73
2022/11/18 06:23:49;;;;;;;9.10;2.87;;;-10.00;99.90;;;;;;5096854;28;20179;-73
2022/11/18 06:26:15;;;;;;;6.73;3.03;;;-8.50;99.90;;;;;;5096490;28;20174;-75
2022/11/18 06:28:44;;;;;;;7.03;3.20;;;-8.70;99.90;;;;;;5096195;28;20236;-75
2022/11/18 06:31:10;;;;;;;4.30;2.10;;;-9.20;99.90;;;;;;5093496;28;20530;-75
2022/11/18 06:33:36;;;;;;;6.77;2.67;;;-8.10;99.90;;;;;;5094766;28;20179;-74
2022/11/18 06:36:02;;;;;;;14.90;3.73;;;-9.30;99.90;;;;;;5091709;28;20189;-73
2022/11/18 06:38:27;;;;;;;9.97;2.30;;;-10.20;99.90;;;;;;5087434;28;20182;-74
2022/11/18 06:40:57;;;;;;;12.53;2.60;;;-10.50;99.90;;;;;;5083784;28;20188;-73
2022/11/18 06:43:38;;;;;;;7.87;2.47;;;-8.00;99.90;;;;;;5087722;28;20477;-74
2022/11/18 06:48:50;;;;;;;3.50;2.67;;;-8.70;99.90;;;;;;5096650;28;20181;-74
2022/11/18 06:51:16;;;;;;;5.57;2.30;;;-9.80;99.90;;;;;;5087400;28;20270;-73
2022/11/18 06:53:42;;;;;;;4.67;2.10;;;-10.10;99.90;;;;;;5087756;28;20225;-74
2022/11/18 06:56:12;;;;;;;4.50;2.00;;;-9.70;99.90;;;;;;5088598;28;20182;-74
2022/11/18 06:58:38;;;;;;;6.63;3.57;;;-9.70;99.90;;;;;;5082842;28;20210;-74
2022/11/18 07:01:20;;;;;;;8.70;2.50;;;-9.10;99.90;;;;;;5086031;28;20215;-74
2022/11/18 07:03:46;;;;;;;6.80;2.50;;;-9.60;99.90;;;;;;5090777;28;20192;-73
2022/11/18 07:06:18;;;;;;;6.43;2.43;;;-9.00;99.90;;;;;;5089834;28;20188;-72
2022/11/18 07:08:44;;;;;;;4.43;1.97;;;-12.30;99.90;;;;;;5088692;28;20194;-73
2022/11/18 07:11:12;;;;;;;5.53;2.47;;;-11.90;99.90;;;;;;5082027;28;20243;-76
2022/11/18 07:13:39;;;;;;;4.07;2.27;;;-13.60;99.90;;;;;;5094338;28;20187;-73
2022/11/18 07:16:08;;;;;;;4.03;2.00;;;-12.60;99.90;;;;;;5095215;28;20616;-74
2022/11/18 07:18:36;;;;;;;6.37;2.43;;;-13.10;99.90;;;;;;5106370;28;20239;-77
2022/11/18 07:21:13;;;;;;;5.57;2.40;;;-14.40;99.90;;;;;;5091091;28;20183;-78
2022/11/18 07:23:38;;;;;;;3.43;1.70;;;-15.50;99.90;;;;;;5095357;28;20231;-73
2022/11/18 07:26:05;;;;;;;4.40;2.50;;;-15.00;99.90;;;;;;5088361;28;20210;-76
2022/11/18 07:28:31;;;;;;;4.97;2.07;;;-14.30;99.90;;;;;;5088521;28;20221;-76
2022/11/18 07:31:12;;;;;;;4.47;1.83;;;-15.10;99.90;;;;;;5096071;28;20184;-73
2022/11/18 07:33:39;;;;;;;8.43;2.73;;;-15.00;99.90;;;;;;5090716;28;20182;-76
2022/11/18 07:36:17;;;;;;;6.80;2.47;;;-14.20;99.90;;;;;;5086261;28;20591;-74
2022/11/18 07:38:43;;;;;;;5.10;2.07;;;-14.80;99.90;;;;;;5079565;28;20202;-73
2022/11/18 07:41:10;;;;;;;4.87;2.00;;;-13.50;99.90;;;;;;5090311;28;20186;-76
2022/11/18 07:43:37;;;;;;;3.30;1.97;;;-12.70;99.90;;;;;;5094240;28;20179;-75
2022/11/18 07:46:21;;;;;;;2.93;1.63;;;-12.50;99.90;;;;;;5083088;28;20188;-72
2022/11/18 07:48:49;;;;;;;5.97;2.50;;;-12.00;99.90;;;;;;5094834;28;20282;-71
2022/11/18 07:51:17;;;;;;;6.50;2.67;;;-10.90;99.90;;;;;;5090471;28;20190;-71
2022/11/18 07:53:43;;;;;;;9.40;2.83;;;-13.60;99.90;;;;;;5091953;28;20198;-74
2022/11/18 07:56:10;;;;;;;5.97;2.87;;;-14.30;99.90;;;;;;5064645;28;20542;-74
2022/11/18 07:58:36;;;;;;;2.37;2.00;;;-13.90;99.90;;;;;;5083565;28;20207;-72
2022/11/18 08:01:12;;;;;;;4.97;2.67;;;-14.70;99.90;;;;;;5081840;28;20184;-71
2022/11/18 08:03:38;;;;;;;6.43;3.87;;;-13.80;99.90;;;;;;5094810;28;20219;-74
2022/11/18 08:06:06;;;;;;;5.20;2.30;;;-13.20;99.90;;;;;;5090733;28;20183;-72
2022/11/18 08:08:32;;;;;;;3.27;2.63;;;-12.60;99.90;;;;;;5093924;28;20191;-76
2022/11/18 08:11:00;;;;;;;7.53;2.90;;;-13.20;99.90;;;;;;5095433;28;20213;-75
2022/11/18 08:13:27;;;;;;;4.23;2.70;;;-14.80;99.90;;;;;;5086878;28;20176;-72
2022/11/18 08:15:53;;;;;;;7.87;2.77;;;-11.10;99.90;;;;;;5091342;28;20257;-72
2022/11/18 08:18:19;;;;;;;11.60;3.43;;;-10.60;99.90;;;;;;5085169;28;20614;-71
2022/11/18 08:20:45;;;;;;;10.63;2.13;;;-11.90;99.90;;;;;;5098174;28;20200;-76
2022/11/18 08:23:12;;;;;;;6.60;1.90;;;-10.10;99.90;;;;;;5095063;28;20239;-76
2022/11/18 08:25:39;;;;;;;8.43;2.77;;;-9.20;99.90;;;;;;5097558;28;20180;-74
2022/11/18 08:28:05;;;;;;;17.17;2.87;;;-12.90;99.90;;;;;;5093294;28;20186;-74
2022/11/18 08:30:32;;;;;;;4.60;2.53;;;-13.00;99.90;;;;;;5095898;28;20265;-71
2022/11/18 08:32:58;;;;;;;2.83;2.47;;;-14.10;99.90;;;;;;5096192;28;20188;-71
2022/11/18 08:35:25;;;;;;;5.73;2.80;;;-13.10;99.90;;;;;;5093221;28;20184;-74
2022/11/18 08:37:51;;;;;;;7.43;3.53;;;-10.80;99.90;;;;;;5094927;28;20452;-76
2022/11/18 08:40:17;;;;;;;7.17;3.13;;;-11.70;99.90;;;;;;5094647;28;20218;-74
2022/11/18 08:42:43;;;;;;;4.80;2.33;;;-12.90;99.90;;;;;;5097616;28;20186;-73
2022/11/18 08:45:09;;;;;;;13.00;2.67;;;-12.20;99.90;;;;;;5093652;28;20271;-74
2022/11/18 08:47:36;;;;;;;4.57;2.40;;;-10.90;99.90;;;;;;5097126;28;20174;-73
2022/11/18 08:50:03;;;;;;;6.50;2.83;;;-9.10;99.90;;;;;;5098440;28;20238;-74
2022/11/18 08:52:29;;;;;;;9.93;3.30;;;-14.30;99.90;;;;;;5096672;28;20211;-75
2022/11/18 08:54:55;;;;;;;9.17;3.00;;;-11.40;99.90;;;;;;5092041;28;20487;-75
2022/11/18 08:57:21;;;;;;;4.17;3.17;;;-13.30;99.90;;;;;;5089281;28;20349;-75
2022/11/18 08:59:46;;;;;;;12.43;3.53;;;-11.60;99.90;;;;;;5088558;28;20208;-74
2022/11/18 09:02:17;;;;;;;5.07;2.57;;;-10.50;99.90;;;;;;5092351;28;20231;-72
2022/11/18 09:04:45;;;;;;;8.50;2.73;;;-10.40;99.90;;;;;;5084639;28;20181;-70
2022/11/18 09:07:11;;;;;;;5.87;2.70;;;-8.90;99.90;;;;;;5097965;28;20180;-71
2022/11/18 09:09:36;;;;;;;7.90;2.63;;;-11.60;99.90;;;;;;5095465;28;20184;-71
2022/11/18 09:12:02;;;;;;;6.83;3.77;;;-11.50;99.90;;;;;;5085629;28;20229;-72
2022/11/18 09:14:28;;;;;;;5.07;2.53;;;-11.00;99.90;;;;;;5091527;28;20183;-72
2022/11/18 09:16:53;;;;;;;8.30;3.50;;;-11.70;99.90;;;;;;5093233;28;20580;-75
2022/11/18 09:19:19;;;;;;;2.50;1.90;;;-12.40;99.90;;;;;;5085483;28;20192;-73
2022/11/18 09:21:45;;;;;;;4.53;2.80;;;-11.30;99.90;;;;;;5090533;28;20204;-75
2022/11/18 09:24:11;;;;;;;17.50;3.70;;;-11.80;99.90;;;;;;5097797;28;20187;-72
2022/11/18 09:26:37;;;;;;;3.83;2.63;;;-10.50;99.90;;;;;;5091647;28;20231;-74
2022/11/18 09:29:03;;;;;;;7.50;2.97;;;-10.90;99.90;;;;;;5096436;28;20192;-74
2022/11/18 09:31:29;;;;;;;4.57;2.43;;;-9.80;99.90;;;;;;5091708;28;20193;-74
2022/11/18 09:33:57;;;;;;;3.97;2.03;;;-11.80;99.90;;;;;;5089963;28;20177;-75
2022/11/18 09:36:24;;;;;;;2.30;1.70;;;-11.80;99.90;;;;;;5108837;27;20181;-74
2022/11/18 09:38:52;;;;;;;3.50;2.17;;;-12.40;99.90;;;;;;5097563;28;20220;-73
2022/11/18 09:41:46;;;;;;;5.80;3.43;;;-12.70;99.90;;;;;;5093352;28;20182;-72
2022/11/18 09:44:30;;;;;;;6.43;3.13;;;-13.10;99.90;;;;;;5095392;28;20186;-72
2022/11/18 09:47:32;;;;;;;2.43;2.23;;;-12.30;99.90;;;;;;5086628;28;20186;-76
2022/11/18 09:50:17;;;;;;;6.10;2.63;;;-12.60;99.90;;;;;;5083788;28;20275;-74
2022/11/18 09:52:58;;;;;;;7.03;1.67;;;-14.80;99.90;;;;;;5096084;28;20627;-74
2022/11/18 09:55:24;;;;;;;5.60;2.40;;;-16.60;99.90;;;;;;5092650;28;20185;-75
2022/11/18 09:57:54;;;;;;;5.00;1.83;;;-13.70;99.90;;;;;;5088043;28;20264;-76
2022/11/18 10:00:23;;;;;;;8.40;2.17;;;-14.00;99.90;;;;;;5094294;28;20289;-73
2022/11/18 10:03:03;;;;;;;3.33;2.03;;;-11.20;99.90;;;;;;5083152;28;20218;-75
2022/11/18 10:05:47;;;;;;;3.73;2.17;;;-11.00;99.90;;;;;;5085770;28;20182;-74
2022/11/18 10:08:34;;;;;;;3.33;1.90;;;-9.60;99.90;;;;;;5083383;28;20633;-71
2022/11/18 10:11:03;;;;;;;3.00;2.03;;;-11.60;99.90;;;;;;5097815;28;20185;-71
2022/11/18 10:13:44;;;;;;;2.00;1.60;;;-12.30;99.90;;;;;;5095998;28;20185;-74
2022/11/18 10:16:16;;;;;;;2.63;1.57;;;-10.90;99.90;;;;;;5085613;28;20181;-71
2022/11/18 10:18:52;;;;;;;2.30;1.63;;;-10.10;99.90;;;;;;5091232;28;20181;-71
2022/11/18 10:21:47;;;;;;;4.63;2.30;;;-9.80;99.90;;;;;;5089048;28;20548;-73
2022/11/18 10:24:20;;;;;;;21.00;2.83;;;-11.00;99.90;;;;;;5073458;28;20225;-74
2022/11/18 10:26:46;;;;;;;8.20;2.00;;;-11.10;99.90;;;;;;5091448;28;20321;-75
2022/11/18 10:29:12;;;;;;;2.60;1.83;;;-10.00;99.90;;;;;;5094385;28;20180;-77
2022/11/18 10:32:03;;;;;;;7.97;2.07;;;-13.90;99.90;;;;;;5096470;28;20442;-75
2022/11/18 10:34:30;;;;;;;10.20;1.63;;;-14.90;99.90;;;;;;5082912;28;20255;-74
2022/11/18 10:37:20;;;;;;;9.70;2.33;;;-13.80;99.90;;;;;;5096143;28;20201;-76
2022/11/18 10:39:53;;;;;;;9.63;1.90;;;-13.50;99.90;;;;;;5091993;28;20194;-78
2022/11/18 10:42:28;;;;;;;3.63;1.93;;;-13.50;99.90;;;;;;5090255;28;20178;-76
2022/11/18 10:44:55;;;;;;;3.33;1.47;;;-14.10;99.90;;;;;;5087264;28;20180;-76
2022/11/18 10:47:30;;;;;;;3.50;1.50;;;-12.90;99.90;;;;;;5086319;28;20177;-75
2022/11/18 10:49:58;;;;;;;4.70;2.03;;;-12.40;99.90;;;;;;5087108;28;20263;-72
2022/11/18 10:52:25;;;;;;;2.50;1.57;;;-12.10;99.90;;;;;;5088838;28;20285;-72
2022/11/18 10:55:24;;;;;;;2.53;1.40;;;-11.80;99.90;;;;;;5082725;28;20272;-73
2022/11/18 10:57:56;;;;;;;4.53;1.97;;;-15.60;99.90;;;;;;5062478;28;20501;-76
2022/11/18 11:00:35;;;;;;;3.67;1.53;;;-15.00;99.90;;;;;;5086223;28;20543;-72
2022/11/18 11:03:22;;;;;;;5.20;1.43;;;-15.20;99.90;;;;;;5082046;28;20259;-75
2022/11/18 11:05:48;;;;;;;7.70;2.57;;;-14.00;99.90;;;;;;5091613;28;20205;-73
2022/11/18 11:08:22;;;;;;;4.30;1.23;;;-12.40;99.90;;;;;;5094511;28;20191;-72
2022/11/18 11:10:55;;;;;;;6.37;1.67;;;-12.30;99.90;;;;;;5089239;28;20184;-76
2022/11/18 11:13:26;;;;;;;3.87;1.37;;;-11.30;99.90;;;;;;5086948;28;20328;-73
2022/11/18 11:15:55;;;;;;;8.23;2.00;;;-10.00;99.90;;;;;;5077968;28;20475;-71
2022/11/18 11:18:40;;;;;;;4.03;1.27;;;-8.60;99.90;;;;;;5088792;28;20182;-71
2022/11/18 11:21:12;;;;;;;6.50;1.70;;;-9.10;99.90;;;;;;5094230;28;20181;-74
2022/11/18 11:23:38;;;;;;;4.80;1.50;;;-9.70;99.90;;;;;;5083178;28;20182;-73
2022/11/18 11:26:24;;;;;;;1.60;1.13;;;-9.10;99.90;;;;;;5094281;28;20260;-75
2022/11/18 11:28:58;;;;;;;1.93;1.10;;;-8.40;99.90;;;;;;5068275;28;20497;-76
2022/11/18 11:32:06;;;;;;;2.43;1.73;;;-13.50;99.90;;;;;;5095369;28;20176;-71
2022/11/18 11:34:53;;;;;;;5.87;1.43;;;-14.20;99.90;;;;;;5101126;28;20178;-71
2022/11/18 11:37:40;;;;;;;2.97;2.30;;;-11.10;99.90;;;;;;5101429;28;20247;-69
2022/11/18 11:40:21;;;;;;;2.77;1.20;;;-12.40;99.90;;;;;;5091506;28;20537;-73
2022/11/18 11:43:00;;;;;;;4.33;1.40;;;-10.60;99.90;;;;;;5100015;28;20213;-71
2022/11/18 11:46:11;;;;;;;9.70;1.53;;;-9.40;99.90;;;;;;5092120;28;20170;-74
2022/11/18 11:48:58;;;;;;;10.50;2.23;;;-10.70;99.90;;;;;;5086962;28;20205;-72
2022/11/18 11:51:39;;;;;;;5.93;1.63;;;-14.20;99.90;;;;;;5095331;28;20206;-77
2022/11/18 11:54:17;;;;;;;6.07;1.77;;;-14.80;99.90;;;;;;5099605;28;20636;-74
2022/11/18 11:56:58;;;;;;;1.30;1.30;;;-12.80;99.90;;;;;;5097803;28;20175;-74
2022/11/18 11:59:57;;;;;;;7.57;2.40;;;-12.30;99.90;;;;;;5094178;28;20220;-75
2022/11/18 12:02:43;;;;;;;3.00;1.20;;;-10.30;99.90;;;;;;5092573;28;20566;-74
2022/11/18 12:05:34;;;;;;;3.67;1.60;;;-8.50;99.90;;;;;;5093687;28;20181;-74
2022/11/18 12:08:04;;;;;;;7.80;1.47;;;-10.00;99.90;;;;;;5092665;28;20205;-73
2022/11/18 12:10:45;;;;;;;3.83;1.73;;;-10.80;99.90;;;;;;5100709;28;20495;-73
2022/11/18 12:13:35;;;;;;;2.30;1.20;;;-10.10;99.90;;;;;;5101220;28;20633;-72
2022/11/18 12:16:28;;;;;;;3.57;1.93;;;-10.10;99.90;;;;;;5096732;28;20674;-73
2022/11/18 12:19:19;;;;;;;4.23;1.10;;;-10.20;99.90;;;;;;5097246;28;20628;-71
2022/11/18 12:21:44;;;;;;;3.60;1.30;;;-10.00;99.90;;;;;;5098608;28;20193;-73
2022/11/18 12:24:26;;;;;;;3.20;1.73;;;-9.70;99.90;;;;;;5097221;28;20512;-70
2022/11/18 12:26:51;;;;;;;4.97;1.93;;;-10.10;99.90;;;;;;5089552;28;20198;-73
2022/11/18 12:29:17;;;;;;;7.70;2.57;;;-11.30;99.90;;;;;;5094523;28;20580;-76
2022/11/18 12:31:52;;;;;;;5.60;1.97;;;-11.80;99.90;;;;;;5088682;28;20195;-72
2022/11/18 12:34:25;;;;;;;5.50;1.53;;;-11.20;99.90;;;;;;5097952;28;20198;-72
2022/11/18 12:36:54;;;;;;;3.93;1.37;;;-11.40;99.90;;;;;;5087505;28;20222;-72
2022/11/18 12:39:29;;;;;;;1.40;1.00;;;-9.80;99.90;;;;;;5094040;28;20206;-72
2022/11/18 12:44:50;;;;;;;4.40;1.70;;;-12.50;99.90;;;;;;5090605;28;20576;-73
2022/11/18 12:47:40;;;;;;;2.77;1.57;;;-11.30;99.90;;;;;;5092599;28;20654;-71
2022/11/18 12:50:11;;;;;;;4.13;1.23;;;-12.30;99.90;;;;;;5091813;28;20190;-71
2022/11/18 12:52:40;;;;;;;3.23;1.83;;;-8.70;99.90;;;;;;5092916;28;20216;-72
2022/11/18 12:55:29;;;;;;;3.47;2.07;;;-10.30;99.90;;;;;;5096902;28;20209;-72
2022/11/18 12:57:55;;;;;;;3.70;1.70;;;-12.40;99.90;;;;;;5086771;28;20190;-73
2022/11/18 13:00:23;;;;;;;3.03;1.97;;;-13.50;99.90;;;;;;5087256;28;20218;-73
2022/11/18 13:02:55;;;;;;;12.20;2.20;;;-14.60;99.90;;;;;;5092836;28;20199;-72
2022/11/18 13:05:23;;;;;;;3.17;1.43;;;-13.80;99.90;;;;;;5085753;28;20240;-72
2022/11/18 13:10:38;;;;;;;3.00;1.70;;;-14.80;99.90;;;;;;5094990;28;20235;-73
2022/11/18 13:13:06;;;;;;;4.30;1.90;;;-14.20;99.90;;;;;;5094428;28;20647;-72
2022/11/18 13:18:18;;;;;;;3.17;1.50;;;-14.70;99.90;;;;;;5096246;28;20289;-74
2022/11/18 13:20:57;;;;;;;9.70;2.07;;;-12.40;99.90;;;;;;5091802;28;20605;-71
2022/11/18 13:26:26;;;;;;;5.53;1.90;;;-9.80;99.90;;;;;;5095975;28;20653;-73
2022/11/18 13:29:01;;;;;;;3.40;1.70;;;-10.20;99.90;;;;;;5087807;28;20182;-75
2022/11/18 13:31:32;;;;;;;4.67;1.70;;;-14.70;99.90;;;;;;5096808;28;20488;-73
2022/11/18 13:34:22;;;;;;;3.57;2.00;;;-12.10;99.90;;;;;;5095664;28;20183;-73